sensor_id;sensor_type;location;lat;lon;timestamp;pressure;altitude;pressure_sealevel;temperature;humidity
58534;BME280;44109;52.398;7.024;2023-04-01T00:00:37;98947.97;;;11.48;100.00
58534;BME280;44109;52.398;7.024;2023-04-01T00:03:06;98936.13;;;11.43;100.00
58534;BME280;44109;52.398;7.024;2023-04-01T00:05:38;98951.91;;;11.50;100.00
58534;BME280;44109;52.398;7.024;2023-04-01T00:08:05;98947.97;;;11.48;100.00
58534;BME280;44109;52.398;7.024;2023-04-01T00:10:33;98946.44;;;11.43;100.00
58534;BME280;44109;52.398;7.024;2023-04-01T00:13:01;98953.56;;;11.44;100.00
58534;BME280;44109;52.398;7.024;2023-04-01T00:15:28;98952.78;;;11.43;100.00
58534;BME280;44109;52.398;7.024;2023-04-01T00:17:56;98927.72;;;11.24;100.00
58534;BME280;44109;52.398;7.024;2023-04-01T00:20:24;98944.16;;;11.38;100.00
58534;BME280;44109;52.398;7.024;2023-04-01T00:22:54;98948.13;;;11.37;100.00
58534;BME280;44109;52.398;7.024;2023-04-01T00:25:22;98943.72;;;11.39;100.00
58534;BME280;44109;52.398;7.024;2023-04-01T00:27:50;98948.09;;;11.40;100.00
58534;BME280;44109;52.398;7.024;2023-04-01T00:30:18;98952.03;;;11.39;100.00
58534;BME280;44109;52.398;7.024;2023-04-01T00:32:46;98949.69;;;11.38;100.00
58534;BME280;44109;52.398;7.024;2023-04-01T00:35:13;98947.88;;;11.28;100.00
58534;BME280;44109;52.398;7.024;2023-04-01T00:37:41;98940.22;;;11.35;100.00
58534;BME280;44109;52.398;7.024;2023-04-01T00:40:24;98946.16;;;11.37;100.00
58534;BME280;44109;52.398;7.024;2023-04-01T00:42:54;98943.38;;;11.37;100.00
58534;BME280;44109;52.398;7.024;2023-04-01T00:45:31;98937.09;;;11.33;100.00
58534;BME280;44109;52.398;7.024;2023-04-01T00:48:04;98946.16;;;11.37;100.00
58534;BME280;44109;52.398;7.024;2023-04-01T00:50:36;98945.84;;;11.32;100.00
58534;BME280;44109;52.398;7.024;2023-04-01T00:53:07;98943.84;;;11.32;100.00
58534;BME280;44109;52.398;7.024;2023-04-01T00:55:39;98931.88;;;11.35;100.00
58534;BME280;44109;52.398;7.024;2023-04-01T00:58:15;98940.22;;;11.35;100.00
58534;BME280;44109;52.398;7.024;2023-04-01T01:00:47;98937.44;;;11.35;100.00
58534;BME280;44109;52.398;7.024;2023-04-01T01:03:17;98942.63;;;11.33;100.00
58534;BME280;44109;52.398;7.024;2023-04-01T01:06:01;98935.88;;;11.34;100.00
58534;BME280;44109;52.398;7.024;2023-04-01T01:08:52;98925.28;;;11.26;100.00
58534;BME280;44109;52.398;7.024;2023-04-01T01:11:50;98937.09;;;11.33;100.00
58534;BME280;44109;52.398;7.024;2023-04-01T01:14:34;98939.84;;;11.33;100.00
58534;BME280;44109;52.398;7.024;2023-04-01T01:17:13;98929.91;;;11.36;100.00
58534;BME280;44109;52.398;7.024;2023-04-01T01:20:00;98906.72;;;11.23;100.00
58534;BME280;44109;52.398;7.024;2023-04-01T01:22:59;98932.63;;;11.39;100.00
58534;BME280;44109;52.398;7.024;2023-04-01T01:25:44;98932.63;;;11.39;100.00
58534;BME280;44109;52.398;7.024;2023-04-01T01:28:36;98930.25;;;11.38;100.00
58534;BME280;44109;52.398;7.024;2023-04-01T01:31:20;98937.81;;;11.37;100.00
58534;BME280;44109;52.398;7.024;2023-04-01T01:34:02;98929.09;;;11.35;100.00
58534;BME280;44109;52.398;7.024;2023-04-01T01:36:44;98928.31;;;11.35;100.00
58534;BME280;44109;52.398;7.024;2023-04-01T01:39:16;98934.59;;;11.39;100.00
58534;BME280;44109;52.398;7.024;2023-04-01T01:41:47;98931.84;;;11.39;100.00
58534;BME280;44109;52.398;7.024;2023-04-01T01:44:16;98918.88;;;11.32;100.00
58534;BME280;44109;52.398;7.024;2023-04-01T01:46:46;98935.03;;;11.37;100.00
58534;BME280;44109;52.398;7.024;2023-04-01T01:49:16;98926.47;;;11.28;100.00
58534;BME280;44109;52.398;7.024;2023-04-01T01:51:47;98930.31;;;11.34;100.00
58534;BME280;44109;52.398;7.024;2023-04-01T01:54:16;98934.31;;;11.33;100.00
58534;BME280;44109;52.398;7.024;2023-04-01T01:56:48;98926.47;;;11.28;100.00
58534;BME280;44109;52.398;7.024;2023-04-01T01:59:20;98927.50;;;11.38;100.00
58534;BME280;44109;52.398;7.024;2023-04-01T02:01:54;98936.97;;;11.40;100.00
58534;BME280;44109;52.398;7.024;2023-04-01T02:04:25;98937.81;;;11.37;100.00
58534;BME280;44109;52.398;7.024;2023-04-01T02:06:58;98932.63;;;11.39;100.00
58534;BME280;44109;52.398;7.024;2023-04-01T02:09:29;98933.81;;;11.38;100.00
58534;BME280;44109;52.398;7.024;2023-04-01T02:11:58;98934.59;;;11.39;100.00
58534;BME280;44109;52.398;7.024;2023-04-01T02:14:30;98938.53;;;11.41;100.00
58534;BME280;44109;52.398;7.024;2023-04-01T02:17:09;98929.44;;;11.41;100.00
58534;BME280;44109;52.398;7.024;2023-04-01T02:19:45;98941.31;;;11.41;100.00
58534;BME280;44109;52.398;7.024;2023-04-01T02:22:20;98937.09;;;11.33;100.00
58534;BME280;44109;52.398;7.024;2023-04-01T02:24:52;98940.59;;;11.37;100.00
58534;BME280;44109;52.398;7.024;2023-04-01T02:27:24;98942.53;;;11.40;100.00
58534;BME280;44109;52.398;7.024;2023-04-01T02:29:53;98940.09;;;11.42;100.00
58534;BME280;44109;52.398;7.024;2023-04-01T02:32:21;98929.06;;;11.39;100.00
58534;BME280;44109;52.398;7.024;2023-04-01T02:34:49;98939.28;;;11.46;100.00
58534;BME280;44109;52.398;7.024;2023-04-01T02:37:19;98925.16;;;11.36;100.00
58534;BME280;44109;52.398;7.024;2023-04-01T02:39:47;98943.66;;;11.43;100.00
58534;BME280;44109;52.398;7.024;2023-04-01T02:42:14;98943.63;;;11.47;100.00
58534;BME280;44109;52.398;7.024;2023-04-01T02:44:42;98947.19;;;11.47;100.00
58534;BME280;44109;52.398;7.024;2023-04-01T02:47:09;98946.75;;;11.49;100.00
58534;BME280;44109;52.398;7.024;2023-04-01T02:49:37;98936.84;;;11.48;100.00
58534;BME280;44109;52.398;7.024;2023-04-01T02:52:04;98941.66;;;11.43;100.00
58534;BME280;44109;52.398;7.024;2023-04-01T02:54:33;98948.75;;;11.48;100.00
58534;BME280;44109;52.398;7.024;2023-04-01T02:57:01;98956.66;;;11.50;100.00
58534;BME280;44109;52.398;7.024;2023-04-01T02:59:28;98948.75;;;11.48;100.00
58534;BME280;44109;52.398;7.024;2023-04-01T03:01:56;98952.38;;;11.45;100.00
58534;BME280;44109;52.398;7.024;2023-04-01T03:04:24;98947.97;;;11.48;100.00
58534;BME280;44109;52.398;7.024;2023-04-01T03:06:51;98955.06;;;11.49;100.00
58534;BME280;44109;52.398;7.024;2023-04-01T03:09:19;98955.88;;;11.49;100.00
58534;BME280;44109;52.398;7.024;2023-04-01T03:11:48;98957.44;;;11.50;100.00
58534;BME280;44109;52.398;7.024;2023-04-01T03:14:15;98965.78;;;11.50;100.00
58534;BME280;44109;52.398;7.024;2023-04-01T03:16:43;98956.28;;;11.48;100.00
58534;BME280;44109;52.398;7.024;2023-04-01T03:19:10;98963.78;;;11.51;100.00
58534;BME280;44109;52.398;7.024;2023-04-01T03:21:38;98959.00;;;11.51;100.00
58534;BME280;44109;52.398;7.024;2023-04-01T03:24:06;98961.34;;;11.53;100.00
58534;BME280;44109;52.398;7.024;2023-04-01T03:26:33;98966.91;;;11.53;100.00
58534;BME280;44109;52.398;7.024;2023-04-01T03:29:02;98961.34;;;11.53;100.00
58534;BME280;44109;52.398;7.024;2023-04-01T03:31:30;98970.91;;;11.52;100.00
58534;BME280;44109;52.398;7.024;2023-04-01T03:33:58;98973.25;;;11.53;100.00
58534;BME280;44109;52.398;7.024;2023-04-01T03:36:25;98961.34;;;11.53;100.00
58534;BME280;44109;52.398;7.024;2023-04-01T03:38:53;98970.91;;;11.52;100.00
58534;BME280;44109;52.398;7.024;2023-04-01T03:41:20;98968.06;;;11.55;100.00
58534;BME280;44109;52.398;7.024;2023-04-01T03:43:48;98978.75;;;11.57;100.00
58534;BME280;44109;52.398;7.024;2023-04-01T03:46:18;98980.41;;;11.54;100.00
58534;BME280;44109;52.398;7.024;2023-04-01T03:48:46;98979.53;;;11.57;100.00
58534;BME280;44109;52.398;7.024;2023-04-01T03:51:14;98987.06;;;11.57;100.00
58534;BME280;44109;52.398;7.024;2023-04-01T03:53:42;98989.06;;;11.56;100.00
58534;BME280;44109;52.398;7.024;2023-04-01T03:56:09;98978.75;;;11.57;100.00
58534;BME280;44109;52.398;7.024;2023-04-01T03:58:38;98989.50;;;11.55;100.00
58534;BME280;44109;52.398;7.024;2023-04-01T04:01:13;98984.31;;;11.57;100.00
58534;BME280;44109;52.398;7.024;2023-04-01T04:03:44;98988.25;;;11.59;100.00
58534;BME280;44109;52.398;7.024;2023-04-01T04:06:12;98974.09;;;11.50;100.00
58534;BME280;44109;52.398;7.024;2023-04-01T04:08:41;98991.03;;;11.59;100.00
58534;BME280;44109;52.398;7.024;2023-04-01T04:11:09;98991.81;;;11.60;100.00
58534;BME280;44109;52.398;7.024;2023-04-01T04:13:37;98993.00;;;11.59;100.00
58534;BME280;44109;52.398;7.024;2023-04-01T04:16:05;98999.34;;;11.59;100.00
58534;BME280;44109;52.398;7.024;2023-04-01T04:18:33;98997.34;;;11.60;100.00
58534;BME280;44109;52.398;7.024;2023-04-01T04:21:02;98994.56;;;11.60;100.00
58534;BME280;44109;52.398;7.024;2023-04-01T04:23:30;99006.81;;;11.62;100.00
58534;BME280;44109;52.398;7.024;2023-04-01T04:26:01;99003.25;;;11.62;100.00
58534;BME280;44109;52.398;7.024;2023-04-01T04:28:31;98996.16;;;11.61;100.00
58534;BME280;44109;52.398;7.024;2023-04-01T04:31:00;99006.81;;;11.62;100.00
58534;BME280;44109;52.398;7.024;2023-04-01T04:33:28;99011.19;;;11.63;100.00
58534;BME280;44109;52.398;7.024;2023-04-01T04:35:57;99011.97;;;11.64;100.00
58534;BME280;44109;52.398;7.024;2023-04-01T04:38:27;99015.88;;;11.66;100.00
58534;BME280;44109;52.398;7.024;2023-04-01T04:40:54;99013.88;;;11.67;100.00
58534;BME280;44109;52.398;7.024;2023-04-01T04:43:23;99016.66;;;11.67;100.00
58534;BME280;44109;52.398;7.024;2023-04-01T04:45:51;99023.09;;;11.64;100.00
58534;BME280;44109;52.398;7.024;2023-04-01T04:48:18;99018.31;;;11.64;100.00
58534;BME280;44109;52.398;7.024;2023-04-01T04:50:47;99015.16;;;11.62;100.00
58534;BME280;44109;52.398;7.024;2023-04-01T04:53:17;99020.66;;;11.66;100.00
58534;BME280;44109;52.398;7.024;2023-04-01T04:55:48;99030.94;;;11.69;100.00
58534;BME280;44109;52.398;7.024;2023-04-01T04:58:17;99036.50;;;11.69;100.00
58534;BME280;44109;52.398;7.024;2023-04-01T05:00:45;99037.69;;;11.68;100.00
58534;BME280;44109;52.398;7.024;2023-04-01T05:03:14;99036.59;;;11.62;100.00
58534;BME280;44109;52.398;7.024;2023-04-01T05:05:49;99040.88;;;11.39;100.00
58534;BME280;44109;52.398;7.024;2023-04-01T05:08:17;99039.22;;;11.46;100.00
58534;BME280;44109;52.398;7.024;2023-04-01T05:10:45;99043.94;;;11.49;100.00
58534;BME280;44109;52.398;7.024;2023-04-01T05:13:14;99046.81;;;11.41;100.00
58534;BME280;44109;52.398;7.024;2023-04-01T05:15:42;99049.56;;;11.45;100.00
58534;BME280;44109;52.398;7.024;2023-04-01T05:18:09;99042.31;;;11.51;100.00
58534;BME280;44109;52.398;7.024;2023-04-01T05:20:37;99054.50;;;11.57;100.00
58534;BME280;44109;52.398;7.024;2023-04-01T05:23:04;99054.47;;;11.61;100.00
58534;BME280;44109;52.398;7.024;2023-04-01T05:25:32;99059.25;;;11.60;100.00
58534;BME280;44109;52.398;7.024;2023-04-01T05:28:01;99057.53;;;11.66;100.00
58534;BME280;44109;52.398;7.024;2023-04-01T05:30:28;99063.44;;;11.72;100.00
58534;BME280;44109;52.398;7.024;2023-04-01T05:32:56;99061.78;;;11.75;100.00
58534;BME280;44109;52.398;7.024;2023-04-01T05:35:24;99065.34;;;11.75;100.00
58534;BME280;44109;52.398;7.024;2023-04-01T05:37:51;99078.47;;;11.75;100.00
58534;BME280;44109;52.398;7.024;2023-04-01T05:40:19;99072.94;;;11.71;100.00
58534;BME280;44109;52.398;7.024;2023-04-01T05:42:47;99081.63;;;11.77;100.00
58534;BME280;44109;52.398;7.024;2023-04-01T05:45:16;99074.84;;;11.78;100.00
58534;BME280;44109;52.398;7.024;2023-04-01T05:47:43;99077.59;;;11.81;100.00
58534;BME280;44109;52.398;7.024;2023-04-01T05:50:11;99070.91;;;11.75;100.00
58534;BME280;44109;52.398;7.024;2023-04-01T05:52:39;99081.47;;;11.87;100.00
58534;BME280;44109;52.398;7.024;2023-04-01T05:55:08;99088.59;;;11.88;100.00
58534;BME280;44109;52.398;7.024;2023-04-01T05:57:36;99088.91;;;11.94;100.00
58534;BME280;44109;52.398;7.024;2023-04-01T06:00:05;99094.06;;;11.96;100.00
58534;BME280;44109;52.398;7.024;2023-04-01T06:02:35;99092.38;;;12.02;100.00
58534;BME280;44109;52.398;7.024;2023-04-01T06:05:12;99091.53;;;12.05;100.00
58534;BME280;44109;52.398;7.024;2023-04-01T06:07:44;99089.97;;;12.04;100.00
58534;BME280;44109;52.398;7.024;2023-04-01T06:10:17;99097.75;;;12.12;100.00
58534;BME280;44109;52.398;7.024;2023-04-01T06:12:56;99083.97;;;12.05;100.00
58534;BME280;44109;52.398;7.024;2023-04-01T06:15:36;99107.19;;;12.18;100.00
58534;BME280;44109;52.398;7.024;2023-04-01T06:18:38;99091.84;;;12.10;100.00
58534;BME280;44109;52.398;7.024;2023-04-01T06:21:30;99107.06;;;12.26;100.00
58534;BME280;44109;52.398;7.024;2023-04-01T06:24:30;99115.94;;;12.17;100.00
58534;BME280;44109;52.398;7.024;2023-04-01T06:27:28;99116.56;;;12.28;100.00
58534;BME280;44109;52.398;7.024;2023-04-01T06:30:23;99129.91;;;12.37;100.00
58534;BME280;44109;52.398;7.024;2023-04-01T06:33:13;99133.78;;;12.43;100.00
58534;BME280;44109;52.398;7.024;2023-04-01T06:36:15;99119.22;;;12.35;100.00
58534;BME280;44109;52.398;7.024;2023-04-01T06:39:09;99131.97;;;12.56;100.00
58534;BME280;44109;52.398;7.024;2023-04-01T06:42:09;99132.19;;;12.65;100.00
58534;BME280;44109;52.398;7.024;2023-04-01T06:44:56;99133.28;;;12.72;100.00
58534;BME280;44109;52.398;7.024;2023-04-01T06:47:52;99134.44;;;12.74;100.00
58534;BME280;44109;52.398;7.024;2023-04-01T06:50:36;99143.84;;;12.80;100.00
58534;BME280;44109;52.398;7.024;2023-04-01T06:53:18;99144.22;;;12.82;100.00
58534;BME280;44109;52.398;7.024;2023-04-01T06:55:56;99144.63;;;12.81;100.00
58534;BME280;44109;52.398;7.024;2023-04-01T06:58:30;99145.44;;;12.81;100.00
58534;BME280;44109;52.398;7.024;2023-04-01T07:01:03;99145.78;;;12.83;100.00
58534;BME280;44109;52.398;7.024;2023-04-01T07:03:39;99152.13;;;12.84;100.00
58534;BME280;44109;52.398;7.024;2023-04-01T07:06:16;99143.84;;;12.80;100.00
58534;BME280;44109;52.398;7.024;2023-04-01T07:08:53;99152.88;;;12.88;100.00
58534;BME280;44109;52.398;7.024;2023-04-01T07:11:29;99153.16;;;12.93;100.00
58534;BME280;44109;52.398;7.024;2023-04-01T07:14:01;99151.03;;;13.01;100.00
58534;BME280;44109;52.398;7.024;2023-04-01T07:16:41;99160.31;;;13.14;100.00
58534;BME280;44109;52.398;7.024;2023-04-01T07:19:18;99149.91;;;13.18;100.00
58534;BME280;44109;52.398;7.024;2023-04-01T07:21:56;99169.00;;;13.40;100.00
58534;BME280;44109;52.398;7.024;2023-04-01T07:24:32;99169.13;;;13.53;100.00
58534;BME280;44109;52.398;7.024;2023-04-01T07:27:08;99177.78;;;13.58;100.00
58534;BME280;44109;52.398;7.024;2023-04-01T07:29:37;99176.91;;;13.61;100.00
58534;BME280;44109;52.398;7.024;2023-04-01T07:32:11;99186.47;;;13.60;100.00
58534;BME280;44109;52.398;7.024;2023-04-01T07:34:54;99187.63;;;13.63;100.00
58534;BME280;44109;52.398;7.024;2023-04-01T07:37:38;99190.69;;;13.68;100.00
58534;BME280;44109;52.398;7.024;2023-04-01T07:40:17;99185.72;;;13.76;100.00
58534;BME280;44109;52.398;7.024;2023-04-01T07:43:10;99203.38;;;13.89;100.00
58534;BME280;44109;52.398;7.024;2023-04-01T07:45:56;99206.44;;;13.95;100.00
58534;BME280;44109;52.398;7.024;2023-04-01T07:48:39;99200.09;;;13.94;100.00
58534;BME280;44109;52.398;7.024;2023-04-01T07:51:19;99208.47;;;13.94;100.00
58534;BME280;44109;52.398;7.024;2023-04-01T07:54:01;99214.50;;;13.89;100.00
58534;BME280;44109;52.398;7.024;2023-04-01T07:56:38;99215.84;;;13.65;100.00
58534;BME280;44109;52.398;7.024;2023-04-01T07:59:18;99220.56;;;13.68;100.00
58534;BME280;44109;52.398;7.024;2023-04-01T08:02:00;99229.97;;;13.74;100.00
58534;BME280;44109;52.398;7.024;2023-04-01T08:04:48;99228.63;;;13.82;100.00
58534;BME280;44109;52.398;7.024;2023-04-01T08:07:26;99238.41;;;13.90;100.00
58534;BME280;44109;52.398;7.024;2023-04-01T08:10:11;99239.81;;;13.99;100.00
58534;BME280;44109;52.398;7.024;2023-04-01T08:12:54;99238.31;;;14.14;100.00
58534;BME280;44109;52.398;7.024;2023-04-01T08:15:32;99239.91;;;14.31;100.00
58534;BME280;44109;52.398;7.024;2023-04-01T08:18:15;99239.66;;;14.42;100.00
58534;BME280;44109;52.398;7.024;2023-04-01T08:20:57;99222.84;;;14.45;100.00
58534;BME280;44109;52.398;7.024;2023-04-01T08:23:30;99252.16;;;14.86;100.00
58534;BME280;44109;52.398;7.024;2023-04-01T08:26:04;99251.59;;;15.08;100.00
58534;BME280;44109;52.398;7.024;2023-04-01T08:28:40;99254.31;;;15.28;100.00
58534;BME280;44109;52.398;7.024;2023-04-01T08:31:14;99256.88;;;14.89;100.00
58534;BME280;44109;52.398;7.024;2023-04-01T08:33:47;99256.84;;;15.06;100.00
58534;BME280;44109;52.398;7.024;2023-04-01T08:36:22;99256.06;;;15.21;100.00
58534;BME280;44109;52.398;7.024;2023-04-01T08:38:57;99264.44;;;15.21;100.00
58534;BME280;44109;52.398;7.024;2023-04-01T08:41:52;99266.28;;;14.79;100.00
58534;BME280;44109;52.398;7.024;2023-04-01T08:44:58;99275.88;;;15.27;100.00
58534;BME280;44109;52.398;7.024;2023-04-01T08:48:17;99279.63;;;15.66;100.00
58534;BME280;44109;52.398;7.024;2023-04-01T08:54:46;99286.81;;;16.09;100.00
58534;BME280;44109;52.398;7.024;2023-04-01T08:57:40;99272.28;;;16.14;100.00
58534;BME280;44109;52.398;7.024;2023-04-01T09:00:24;99290.66;;;16.28;100.00
58534;BME280;44109;52.398;7.024;2023-04-01T09:03:24;99294.91;;;16.32;100.00
58534;BME280;44109;52.398;7.024;2023-04-01T09:09:09;99301.03;;;16.14;100.00
58534;BME280;44109;52.398;7.024;2023-04-01T09:12:11;99300.13;;;16.05;100.00
58534;BME280;44109;52.398;7.024;2023-04-01T09:15:19;99309.16;;;15.96;100.00
58534;BME280;44109;52.398;7.024;2023-04-01T09:18:24;99307.69;;;15.91;100.00
58534;BME280;44109;52.398;7.024;2023-04-01T09:21:37;99308.19;;;15.73;100.00
58534;BME280;44109;52.398;7.024;2023-04-01T09:24:51;99317.44;;;15.70;100.00
58534;BME280;44109;52.398;7.024;2023-04-01T09:27:35;99317.81;;;15.72;100.00
58534;BME280;44109;52.398;7.024;2023-04-01T09:30:41;99313.59;;;15.81;100.00
58534;BME280;44109;52.398;7.024;2023-04-01T09:33:42;99331.56;;;16.09;100.00
58534;BME280;44109;52.398;7.024;2023-04-01T09:36:51;99333.81;;;16.14;100.00
58534;BME280;44109;52.398;7.024;2023-04-01T09:39:37;99328.97;;;16.02;100.00
58534;BME280;44109;52.398;7.024;2023-04-01T09:42:39;99340.94;;;15.57;100.00
58534;BME280;44109;52.398;7.024;2023-04-01T09:45:21;99345.41;;;16.00;100.00
58534;BME280;44109;52.398;7.024;2023-04-01T09:48:09;99336.72;;;16.10;100.00
58534;BME280;44109;52.398;7.024;2023-04-01T09:51:06;99335.84;;;16.13;100.00
58534;BME280;44109;52.398;7.024;2023-04-01T09:53:59;99334.16;;;16.16;100.00
58534;BME280;44109;52.398;7.024;2023-04-01T09:56:57;99352.75;;;15.93;100.00
58534;BME280;44109;52.398;7.024;2023-04-01T10:00:10;99356.00;;;15.92;100.00
58534;BME280;44109;52.398;7.024;2023-04-01T10:09:50;99363.91;;;15.81;100.00
58534;BME280;44109;52.398;7.024;2023-04-01T10:13:30;99368.69;;;15.80;100.00
58534;BME280;44109;52.398;7.024;2023-04-01T10:16:29;99372.69;;;15.95;100.00
58534;BME280;44109;52.398;7.024;2023-04-01T10:23:13;99374.16;;;15.38;100.00
58534;BME280;44109;52.398;7.024;2023-04-01T10:26:06;99382.16;;;15.85;100.00
58534;BME280;44109;52.398;7.024;2023-04-01T10:29:11;99379.72;;;14.89;100.00
58534;BME280;44109;52.398;7.024;2023-04-01T10:32:38;99394.88;;;13.92;100.00
58534;BME280;44109;52.398;7.024;2023-04-01T10:43:02;99398.94;;;14.08;100.00
58534;BME280;44109;52.398;7.024;2023-04-01T10:46:21;99396.63;;;13.83;100.00
58534;BME280;44109;52.398;7.024;2023-04-01T10:49:41;99406.03;;;13.69;100.00
58534;BME280;44109;52.398;7.024;2023-04-01T10:56:15;99415.31;;;14.85;100.00
58534;BME280;44109;52.398;7.024;2023-04-01T11:13:30;99430.00;;;14.30;100.00
58534;BME280;44109;52.398;7.024;2023-04-01T11:17:09;99426.50;;;14.45;100.00
58534;BME280;44109;52.398;7.024;2023-04-01T11:20:17;99443.19;;;15.05;100.00
58534;BME280;44109;52.398;7.024;2023-04-01T11:23:29;99439.66;;;15.54;100.00
58534;BME280;44109;52.398;7.024;2023-04-01T11:26:17;99448.69;;;15.09;100.00
58534;BME280;44109;52.398;7.024;2023-04-01T11:29:34;99451.56;;;14.69;100.00
58534;BME280;44109;52.398;7.024;2023-04-01T11:32:25;99443.50;;;14.11;100.00
58534;BME280;44109;52.398;7.024;2023-04-01T11:35:28;99455.63;;;14.44;100.00
58534;BME280;44109;52.398;7.024;2023-04-01T11:38:21;99462.50;;;14.80;100.00
58534;BME280;44109;52.398;7.024;2023-04-01T11:41:06;99460.97;;;15.47;100.00
58534;BME280;44109;52.398;7.024;2023-04-01T11:43:47;99461.56;;;16.04;100.00
58534;BME280;44109;52.398;7.024;2023-04-01T11:46:34;99447.19;;;15.73;100.00
58534;BME280;44109;52.398;7.024;2023-04-01T11:49:21;99476.72;;;16.36;100.00
58534;BME280;44109;52.398;7.024;2023-04-01T11:52:09;99470.75;;;16.05;100.00
58534;BME280;44109;52.398;7.024;2023-04-01T11:55:19;99480.91;;;16.57;100.00
58534;BME280;44109;52.398;7.024;2023-04-01T11:58:15;99477.75;;;16.26;100.00
58534;BME280;44109;52.398;7.024;2023-04-01T12:01:31;99490.78;;;16.32;100.00
58534;BME280;44109;52.398;7.024;2023-04-01T12:04:27;99496.00;;;15.16;100.00
58534;BME280;44109;52.398;7.024;2023-04-01T12:07:15;99486.47;;;16.15;100.00
58534;BME280;44109;52.398;7.024;2023-04-01T12:09:58;99497.63;;;16.31;100.00
58534;BME280;44109;52.398;7.024;2023-04-01T12:12:38;99503.91;;;16.64;100.00
58534;BME280;44109;52.398;7.024;2023-04-01T12:15:21;99494.47;;;16.87;100.00
58534;BME280;44109;52.398;7.024;2023-04-01T12:18:02;99497.50;;;16.35;100.00
58534;BME280;44109;52.398;7.024;2023-04-01T12:20:42;99515.41;;;16.54;100.00
58534;BME280;44109;52.398;7.024;2023-04-01T12:26:35;99510.22;;;15.41;100.00
58534;BME280;44109;52.398;7.024;2023-04-01T12:29:31;99532.31;;;14.36;100.00
58534;BME280;44109;52.398;7.024;2023-04-01T12:32:20;99538.16;;;15.05;100.00
58534;BME280;44109;52.398;7.024;2023-04-01T12:35:24;99536.34;;;15.15;100.00
58534;BME280;44109;52.398;7.024;2023-04-01T12:38:10;99544.31;;;14.96;100.00
58534;BME280;44109;52.398;7.024;2023-04-01T12:41:13;99550.25;;;14.79;100.00
58534;BME280;44109;52.398;7.024;2023-04-01T12:44:11;99557.13;;;14.74;100.00
58534;BME280;44109;52.398;7.024;2023-04-01T12:53:43;99571.81;;;14.08;100.00
58534;BME280;44109;52.398;7.024;2023-04-01T12:56:33;99573.28;;;14.16;100.00
58534;BME280;44109;52.398;7.024;2023-04-01T12:59:31;99577.38;;;13.57;100.00
58534;BME280;44109;52.398;7.024;2023-04-01T13:02:13;99586.38;;;13.95;100.00
58534;BME280;44109;52.398;7.024;2023-04-01T13:05:23;99586.63;;;13.24;100.00
58534;BME280;44109;52.398;7.024;2023-04-01T13:11:09;99601.34;;;13.82;100.00
58534;BME280;44109;52.398;7.024;2023-04-01T13:16:54;99616.94;;;13.76;100.00
58534;BME280;44109;52.398;7.024;2023-04-01T13:19:36;99619.63;;;13.56;100.00
58534;BME280;44109;52.398;7.024;2023-04-01T13:22:16;99605.09;;;13.07;100.00
58534;BME280;44109;52.398;7.024;2023-04-01T13:24:55;99625.00;;;13.39;100.00
58534;BME280;44109;52.398;7.024;2023-04-01T13:27:34;99624.00;;;13.53;100.00
58534;BME280;44109;52.398;7.024;2023-04-01T13:30:20;99628.63;;;13.36;100.00
58534;BME280;44109;52.398;7.024;2023-04-01T13:32:58;99631.81;;;13.01;100.00
58534;BME280;44109;52.398;7.024;2023-04-01T13:35:38;99637.41;;;12.59;100.00
58534;BME280;44109;52.398;7.024;2023-04-01T13:38:32;99641.94;;;12.84;100.00
58534;BME280;44109;52.398;7.024;2023-04-01T13:41:45;99635.78;;;12.62;100.00
58534;BME280;44109;52.398;7.024;2023-04-01T13:44:24;99642.34;;;12.82;100.00
58534;BME280;44109;52.398;7.024;2023-04-01T13:47:20;99646.22;;;11.99;100.00
58534;BME280;44109;52.398;7.024;2023-04-01T13:50:12;99658.50;;;12.08;100.00
58534;BME280;44109;52.398;7.024;2023-04-01T13:53:16;99662.13;;;12.50;100.00
58534;BME280;44109;52.398;7.024;2023-04-01T13:56:08;99662.34;;;12.22;100.00
58534;BME280;44109;52.398;7.024;2023-04-01T14:02:15;99673.31;;;11.87;100.00
58534;BME280;44109;52.398;7.024;2023-04-01T14:05:15;99678.28;;;12.17;100.00
58534;BME280;44109;52.398;7.024;2023-04-01T14:08:11;99685.63;;;11.79;100.00
58534;BME280;44109;52.398;7.024;2023-04-01T14:10:57;99686.97;;;12.23;100.00
58534;BME280;44109;52.398;7.024;2023-04-01T14:13:41;99695.66;;;12.32;100.00
58534;BME280;44109;52.398;7.024;2023-04-01T14:16:47;99701.72;;;12.16;100.00
58534;BME280;44109;52.398;7.024;2023-04-01T14:22:38;99713.44;;;12.46;100.00
58534;BME280;44109;52.398;7.024;2023-04-01T14:25:32;99709.00;;;12.52;100.00
58534;BME280;44109;52.398;7.024;2023-04-01T14:28:16;99718.84;;;12.63;100.00
58534;BME280;44109;52.398;7.024;2023-04-01T14:34:04;99728.13;;;12.46;100.00
58534;BME280;44109;52.398;7.024;2023-04-01T14:40:27;99741.56;;;12.58;100.00
58534;BME280;44109;52.398;7.024;2023-04-01T14:46:27;99745.13;;;11.92;100.00
58534;BME280;44109;52.398;7.024;2023-04-01T14:49:21;99755.16;;;11.65;100.00
58534;BME280;44109;52.398;7.024;2023-04-01T14:52:04;99767.88;;;11.59;100.00
58534;BME280;44109;52.398;7.024;2023-04-01T14:54:41;99767.53;;;11.35;100.00
58534;BME280;44109;52.398;7.024;2023-04-01T14:57:12;99775.91;;;11.28;100.00
58534;BME280;44109;52.398;7.024;2023-04-01T14:59:48;99775.03;;;11.56;100.00
58534;BME280;44109;52.398;7.024;2023-04-01T15:02:35;99794.50;;;11.38;100.00
58534;BME280;44109;52.398;7.024;2023-04-01T15:05:16;99787.38;;;11.30;100.00
58534;BME280;44109;52.398;7.024;2023-04-01T15:08:06;99796.91;;;11.40;100.00
58534;BME280;44109;52.398;7.024;2023-04-01T15:11:03;99796.91;;;11.26;100.00
58534;BME280;44109;52.398;7.024;2023-04-01T15:14:06;99810.81;;;11.11;100.00
58534;BME280;44109;52.398;7.024;2023-04-01T15:16:57;99812.38;;;11.16;100.00